sensor_id;sensor_type;location;lat;lon;timestamp;P1;durP1;ratioP1;P2;durP2;ratioP2
74293;SDS011;64044;59.904;10.738;2022-12-10T00:00:55;11.45;;;3.70;;
74293;SDS011;64044;59.904;10.738;2022-12-10T00:03:30;9.85;;;3.50;;
74293;SDS011;64044;59.904;10.738;2022-12-10T00:05:58;6.18;;;2.83;;
74293;SDS011;64044;59.904;10.738;2022-12-10T00:08:28;9.68;;;3.58;;
74293;SDS011;64044;59.904;10.738;2022-12-10T00:10:53;7.90;;;3.05;;
74293;SDS011;64044;59.904;10.738;2022-12-10T00:13:19;6.30;;;2.95;;
74293;SDS011;64044;59.904;10.738;2022-12-10T00:15:44;5.68;;;2.60;;
74293;SDS011;64044;59.904;10.738;2022-12-10T00:18:10;6.25;;;2.08;;
74293;SDS011;64044;59.904;10.738;2022-12-10T00:20:36;4.65;;;2.28;;
74293;SDS011;64044;59.904;10.738;2022-12-10T00:23:03;3.55;;;1.73;;
74293;SDS011;64044;59.904;10.738;2022-12-10T00:25:28;6.53;;;2.75;;
74293;SDS011;64044;59.904;10.738;2022-12-10T00:27:54;4.43;;;1.90;;
74293;SDS011;64044;59.904;10.738;2022-12-10T00:30:20;5.13;;;2.28;;
74293;SDS011;64044;59.904;10.738;2022-12-10T00:32:46;3.85;;;1.80;;
74293;SDS011;64044;59.904;10.738;2022-12-10T00:35:11;4.18;;;1.38;;
74293;SDS011;64044;59.904;10.738;2022-12-10T00:37:37;2.75;;;1.45;;
74293;SDS011;64044;59.904;10.738;2022-12-10T00:40:03;2.38;;;1.60;;
74293;SDS011;64044;59.904;10.738;2022-12-10T00:42:29;2.10;;;1.25;;
74293;SDS011;64044;59.904;10.738;2022-12-10T00:44:55;3.60;;;1.52;;
74293;SDS011;64044;59.904;10.738;2022-12-10T00:47:21;4.35;;;1.80;;
74293;SDS011;64044;59.904;10.738;2022-12-10T00:49:46;4.43;;;1.92;;
74293;SDS011;64044;59.904;10.738;2022-12-10T00:52:12;3.67;;;1.50;;
74293;SDS011;64044;59.904;10.738;2022-12-10T00:54:38;5.75;;;1.80;;
74293;SDS011;64044;59.904;10.738;2022-12-10T00:57:03;3.17;;;1.40;;
74293;SDS011;64044;59.904;10.738;2022-12-10T00:59:29;4.80;;;1.73;;
74293;SDS011;64044;59.904;10.738;2022-12-10T01:01:54;3.20;;;1.52;;
74293;SDS011;64044;59.904;10.738;2022-12-10T01:04:20;6.68;;;2.05;;
74293;SDS011;64044;59.904;10.738;2022-12-10T01:06:50;2.92;;;1.85;;
74293;SDS011;64044;59.904;10.738;2022-12-10T01:09:18;3.70;;;1.63;;
74293;SDS011;64044;59.904;10.738;2022-12-10T01:11:46;3.00;;;1.70;;
74293;SDS011;64044;59.904;10.738;2022-12-10T01:14:14;3.85;;;1.80;;
74293;SDS011;64044;59.904;10.738;2022-12-10T01:16:42;5.78;;;1.40;;
74293;SDS011;64044;59.904;10.738;2022-12-10T01:19:08;2.80;;;1.65;;
74293;SDS011;64044;59.904;10.738;2022-12-10T01:21:34;3.45;;;1.63;;
74293;SDS011;64044;59.904;10.738;2022-12-10T01:24:00;2.80;;;1.50;;
74293;SDS011;64044;59.904;10.738;2022-12-10T01:26:27;3.17;;;1.70;;
74293;SDS011;64044;59.904;10.738;2022-12-10T01:28:58;3.65;;;1.58;;
74293;SDS011;64044;59.904;10.738;2022-12-10T01:31:25;1.05;;;0.90;;
74293;SDS011;64044;59.904;10.738;2022-12-10T01:33:52;3.13;;;1.10;;
74293;SDS011;64044;59.904;10.738;2022-12-10T01:36:22;1.77;;;1.00;;
74293;SDS011;64044;59.904;10.738;2022-12-10T01:38:53;1.17;;;0.82;;
74293;SDS011;64044;59.904;10.738;2022-12-10T01:41:26;2.05;;;1.20;;
74293;SDS011;64044;59.904;10.738;2022-12-10T01:43:59;1.95;;;1.00;;
74293;SDS011;64044;59.904;10.738;2022-12-10T01:46:32;3.85;;;1.05;;
74293;SDS011;64044;59.904;10.738;2022-12-10T01:49:00;5.72;;;1.38;;
74293;SDS011;64044;59.904;10.738;2022-12-10T01:51:29;2.90;;;1.10;;
74293;SDS011;64044;59.904;10.738;2022-12-10T01:53:56;1.98;;;1.25;;
74293;SDS011;64044;59.904;10.738;2022-12-10T01:56:23;1.30;;;1.02;;
74293;SDS011;64044;59.904;10.738;2022-12-10T01:58:49;2.13;;;1.40;;
74293;SDS011;64044;59.904;10.738;2022-12-10T02:07:04;2.40;;;1.30;;
74293;SDS011;64044;59.904;10.738;2022-12-10T02:18:01;3.22;;;1.58;;
74293;SDS011;64044;59.904;10.738;2022-12-10T02:25:33;1.80;;;0.90;;
74293;SDS011;64044;59.904;10.738;2022-12-10T02:31:03;2.00;;;0.70;;
74293;SDS011;64044;59.904;10.738;2022-12-10T02:33:30;3.45;;;0.95;;
74293;SDS011;64044;59.904;10.738;2022-12-10T02:35:58;1.45;;;0.95;;
74293;SDS011;64044;59.904;10.738;2022-12-10T02:38:29;2.30;;;1.20;;
74293;SDS011;64044;59.904;10.738;2022-12-10T02:41:00;2.17;;;0.98;;
74293;SDS011;64044;59.904;10.738;2022-12-10T02:43:30;3.22;;;1.08;;
74293;SDS011;64044;59.904;10.738;2022-12-10T02:45:58;1.30;;;0.98;;
74293;SDS011;64044;59.904;10.738;2022-12-10T02:48:26;1.77;;;1.10;;
74293;SDS011;64044;59.904;10.738;2022-12-10T02:50:53;1.38;;;1.10;;
74293;SDS011;64044;59.904;10.738;2022-12-10T02:53:18;2.10;;;1.38;;
74293;SDS011;64044;59.904;10.738;2022-12-10T03:01:48;2.60;;;1.10;;
74293;SDS011;64044;59.904;10.738;2022-12-10T03:07:02;3.38;;;1.25;;
74293;SDS011;64044;59.904;10.738;2022-12-10T03:09:47;3.78;;;1.30;;
74293;SDS011;64044;59.904;10.738;2022-12-10T03:12:21;1.35;;;1.00;;
74293;SDS011;64044;59.904;10.738;2022-12-10T03:14:54;4.20;;;1.17;;
74293;SDS011;64044;59.904;10.738;2022-12-10T03:17:23;1.17;;;0.85;;
74293;SDS011;64044;59.904;10.738;2022-12-10T03:19:50;2.65;;;1.20;;
74293;SDS011;64044;59.904;10.738;2022-12-10T03:22:18;3.83;;;1.50;;
74293;SDS011;64044;59.904;10.738;2022-12-10T03:24:45;3.70;;;1.40;;
74293;SDS011;64044;59.904;10.738;2022-12-10T03:27:12;1.85;;;1.05;;
74293;SDS011;64044;59.904;10.738;2022-12-10T03:29:47;3.00;;;1.67;;
74293;SDS011;64044;59.904;10.738;2022-12-10T03:32:15;2.00;;;1.05;;
74293;SDS011;64044;59.904;10.738;2022-12-10T03:34:43;1.15;;;0.95;;
74293;SDS011;64044;59.904;10.738;2022-12-10T03:37:10;2.58;;;1.08;;
74293;SDS011;64044;59.904;10.738;2022-12-10T03:39:37;1.98;;;0.93;;
74293;SDS011;64044;59.904;10.738;2022-12-10T03:42:05;4.70;;;1.10;;
74293;SDS011;64044;59.904;10.738;2022-12-10T03:44:32;0.88;;;0.70;;
74293;SDS011;64044;59.904;10.738;2022-12-10T03:47:00;3.15;;;1.23;;
74293;SDS011;64044;59.904;10.738;2022-12-10T03:49:27;1.05;;;0.68;;
74293;SDS011;64044;59.904;10.738;2022-12-10T03:51:54;3.67;;;1.60;;
74293;SDS011;64044;59.904;10.738;2022-12-10T03:54:19;1.95;;;1.02;;
74293;SDS011;64044;59.904;10.738;2022-12-10T03:56:45;2.03;;;1.17;;
74293;SDS011;64044;59.904;10.738;2022-12-10T03:59:11;8.13;;;1.20;;
74293;SDS011;64044;59.904;10.738;2022-12-10T04:01:36;2.83;;;1.20;;
74293;SDS011;64044;59.904;10.738;2022-12-10T04:04:02;1.88;;;1.10;;
74293;SDS011;64044;59.904;10.738;2022-12-10T04:06:29;3.10;;;1.33;;
74293;SDS011;64044;59.904;10.738;2022-12-10T04:08:54;1.60;;;1.10;;
74293;SDS011;64044;59.904;10.738;2022-12-10T04:11:20;1.42;;;1.02;;
74293;SDS011;64044;59.904;10.738;2022-12-10T04:13:46;1.45;;;1.13;;
74293;SDS011;64044;59.904;10.738;2022-12-10T04:16:31;1.45;;;1.10;;
74293;SDS011;64044;59.904;10.738;2022-12-10T04:19:02;2.28;;;1.00;;
74293;SDS011;64044;59.904;10.738;2022-12-10T04:21:36;2.58;;;1.23;;
74293;SDS011;64044;59.904;10.738;2022-12-10T04:24:23;0.93;;;0.80;;
74293;SDS011;64044;59.904;10.738;2022-12-10T04:27:18;0.93;;;0.73;;
74293;SDS011;64044;59.904;10.738;2022-12-10T04:29:58;1.80;;;0.88;;
74293;SDS011;64044;59.904;10.738;2022-12-10T04:32:25;1.55;;;0.90;;
74293;SDS011;64044;59.904;10.738;2022-12-10T04:34:52;1.90;;;1.10;;
74293;SDS011;64044;59.904;10.738;2022-12-10T04:37:18;2.47;;;1.02;;
74293;SDS011;64044;59.904;10.738;2022-12-10T04:39:44;2.70;;;1.40;;
74293;SDS011;64044;59.904;10.738;2022-12-10T04:42:10;2.00;;;1.25;;
74293;SDS011;64044;59.904;10.738;2022-12-10T04:44:36;1.70;;;0.95;;
74293;SDS011;64044;59.904;10.738;2022-12-10T04:47:05;2.03;;;1.10;;
74293;SDS011;64044;59.904;10.738;2022-12-10T04:49:32;1.13;;;0.98;;
74293;SDS011;64044;59.904;10.738;2022-12-10T04:51:58;1.63;;;1.25;;
74293;SDS011;64044;59.904;10.738;2022-12-10T04:54:24;1.98;;;1.00;;
74293;SDS011;64044;59.904;10.738;2022-12-10T04:56:50;1.23;;;0.75;;
74293;SDS011;64044;59.904;10.738;2022-12-10T04:59:16;1.02;;;0.73;;
74293;SDS011;64044;59.904;10.738;2022-12-10T05:01:42;1.27;;;0.77;;
74293;SDS011;64044;59.904;10.738;2022-12-10T05:04:08;3.78;;;0.82;;
74293;SDS011;64044;59.904;10.738;2022-12-10T05:06:36;1.92;;;0.82;;
74293;SDS011;64044;59.904;10.738;2022-12-10T05:09:02;2.60;;;0.90;;
74293;SDS011;64044;59.904;10.738;2022-12-10T05:11:29;1.38;;;0.85;;
74293;SDS011;64044;59.904;10.738;2022-12-10T05:13:56;1.15;;;1.00;;
74293;SDS011;64044;59.904;10.738;2022-12-10T05:16:25;2.00;;;0.77;;
74293;SDS011;64044;59.904;10.738;2022-12-10T05:18:52;1.88;;;0.90;;
74293;SDS011;64044;59.904;10.738;2022-12-10T05:21:19;1.05;;;0.82;;
74293;SDS011;64044;59.904;10.738;2022-12-10T05:23:47;1.42;;;0.90;;
74293;SDS011;64044;59.904;10.738;2022-12-10T05:26:15;4.15;;;1.10;;
74293;SDS011;64044;59.904;10.738;2022-12-10T05:28:41;1.40;;;1.13;;
74293;SDS011;64044;59.904;10.738;2022-12-10T05:31:13;5.22;;;0.98;;
74293;SDS011;64044;59.904;10.738;2022-12-10T05:33:47;2.15;;;0.65;;
74293;SDS011;64044;59.904;10.738;2022-12-10T05:36:14;1.60;;;0.98;;
74293;SDS011;64044;59.904;10.738;2022-12-10T05:38:41;2.22;;;1.20;;
74293;SDS011;64044;59.904;10.738;2022-12-10T05:41:14;1.50;;;0.95;;
74293;SDS011;64044;59.904;10.738;2022-12-10T05:43:45;3.75;;;1.23;;
74293;SDS011;64044;59.904;10.738;2022-12-10T05:46:13;1.92;;;0.90;;
74293;SDS011;64044;59.904;10.738;2022-12-10T05:48:47;1.80;;;1.17;;
74293;SDS011;64044;59.904;10.738;2022-12-10T05:51:17;1.63;;;0.80;;
74293;SDS011;64044;59.904;10.738;2022-12-10T05:53:44;2.70;;;1.40;;
74293;SDS011;64044;59.904;10.738;2022-12-10T05:56:11;2.63;;;1.00;;
74293;SDS011;64044;59.904;10.738;2022-12-10T05:58:39;2.03;;;0.93;;
74293;SDS011;64044;59.904;10.738;2022-12-10T06:01:10;1.00;;;0.90;;
74293;SDS011;64044;59.904;10.738;2022-12-10T06:03:43;1.98;;;1.23;;
74293;SDS011;64044;59.904;10.738;2022-12-10T06:06:09;1.48;;;1.17;;
74293;SDS011;64044;59.904;10.738;2022-12-10T06:08:35;0.95;;;0.70;;
74293;SDS011;64044;59.904;10.738;2022-12-10T06:11:05;2.60;;;1.02;;
74293;SDS011;64044;59.904;10.738;2022-12-10T06:15:58;4.65;;;1.20;;
74293;SDS011;64044;59.904;10.738;2022-12-10T06:18:24;1.65;;;1.08;;
74293;SDS011;64044;59.904;10.738;2022-12-10T06:20:49;1.92;;;0.85;;
74293;SDS011;64044;59.904;10.738;2022-12-10T06:23:15;1.77;;;1.35;;
74293;SDS011;64044;59.904;10.738;2022-12-10T06:25:41;2.88;;;1.13;;
74293;SDS011;64044;59.904;10.738;2022-12-10T06:28:07;2.47;;;1.10;;
74293;SDS011;64044;59.904;10.738;2022-12-10T06:30:33;2.05;;;0.93;;
74293;SDS011;64044;59.904;10.738;2022-12-10T06:32:59;1.90;;;0.82;;
74293;SDS011;64044;59.904;10.738;2022-12-10T06:35:25;0.90;;;0.90;;
74293;SDS011;64044;59.904;10.738;2022-12-10T06:37:51;2.15;;;1.05;;
74293;SDS011;64044;59.904;10.738;2022-12-10T06:40:16;1.83;;;1.17;;
74293;SDS011;64044;59.904;10.738;2022-12-10T06:42:42;1.65;;;1.15;;
74293;SDS011;64044;59.904;10.738;2022-12-10T06:45:08;3.13;;;1.17;;
74293;SDS011;64044;59.904;10.738;2022-12-10T06:47:34;3.75;;;1.25;;
74293;SDS011;64044;59.904;10.738;2022-12-10T06:49:59;2.35;;;1.25;;
74293;SDS011;64044;59.904;10.738;2022-12-10T06:52:25;1.83;;;1.45;;
74293;SDS011;64044;59.904;10.738;2022-12-10T06:54:50;3.03;;;1.63;;
74293;SDS011;64044;59.904;10.738;2022-12-10T06:57:16;3.35;;;2.33;;
74293;SDS011;64044;59.904;10.738;2022-12-10T06:59:42;3.92;;;2.00;;
74293;SDS011;64044;59.904;10.738;2022-12-10T07:02:08;4.80;;;1.98;;
74293;SDS011;64044;59.904;10.738;2022-12-10T07:04:34;3.92;;;1.88;;
74293;SDS011;64044;59.904;10.738;2022-12-10T07:07:00;6.53;;;1.90;;
74293;SDS011;64044;59.904;10.738;2022-12-10T07:09:25;2.33;;;1.60;;
74293;SDS011;64044;59.904;10.738;2022-12-10T07:11:51;1.70;;;1.30;;
74293;SDS011;64044;59.904;10.738;2022-12-10T07:14:17;5.00;;;1.48;;
74293;SDS011;64044;59.904;10.738;2022-12-10T07:16:43;4.10;;;1.70;;
74293;SDS011;64044;59.904;10.738;2022-12-10T07:19:09;4.88;;;2.00;;
74293;SDS011;64044;59.904;10.738;2022-12-10T07:21:37;2.72;;;1.67;;
74293;SDS011;64044;59.904;10.738;2022-12-10T07:24:17;4.95;;;1.92;;
74293;SDS011;64044;59.904;10.738;2022-12-10T07:26:44;5.40;;;2.20;;
74293;SDS011;64044;59.904;10.738;2022-12-10T07:29:15;4.97;;;2.10;;
74293;SDS011;64044;59.904;10.738;2022-12-10T07:31:42;4.93;;;2.05;;
74293;SDS011;64044;59.904;10.738;2022-12-10T07:34:09;5.85;;;2.58;;
74293;SDS011;64044;59.904;10.738;2022-12-10T07:36:35;6.25;;;2.45;;
74293;SDS011;64044;59.904;10.738;2022-12-10T07:39:01;7.18;;;2.50;;
74293;SDS011;64044;59.904;10.738;2022-12-10T07:41:29;4.07;;;2.30;;
74293;SDS011;64044;59.904;10.738;2022-12-10T07:43:55;4.35;;;1.77;;
74293;SDS011;64044;59.904;10.738;2022-12-10T07:46:22;5.10;;;2.20;;
74293;SDS011;64044;59.904;10.738;2022-12-10T07:48:50;3.50;;;1.77;;
74293;SDS011;64044;59.904;10.738;2022-12-10T07:51:16;3.53;;;2.00;;
74293;SDS011;64044;59.904;10.738;2022-12-10T07:53:43;5.07;;;2.30;;
74293;SDS011;64044;59.904;10.738;2022-12-10T07:56:09;4.72;;;2.20;;
74293;SDS011;64044;59.904;10.738;2022-12-10T07:58:36;4.28;;;2.88;;
74293;SDS011;64044;59.904;10.738;2022-12-10T08:01:08;3.10;;;2.05;;
74293;SDS011;64044;59.904;10.738;2022-12-10T08:03:39;3.70;;;2.00;;
74293;SDS011;64044;59.904;10.738;2022-12-10T08:08:36;3.85;;;1.88;;
74293;SDS011;64044;59.904;10.738;2022-12-10T08:11:03;3.83;;;1.90;;
74293;SDS011;64044;59.904;10.738;2022-12-10T08:13:30;4.03;;;1.90;;
74293;SDS011;64044;59.904;10.738;2022-12-10T08:16:03;3.25;;;1.92;;
74293;SDS011;64044;59.904;10.738;2022-12-10T08:18:34;3.17;;;1.65;;
74293;SDS011;64044;59.904;10.738;2022-12-10T08:21:06;3.55;;;1.80;;
74293;SDS011;64044;59.904;10.738;2022-12-10T08:23:35;4.22;;;2.10;;
74293;SDS011;64044;59.904;10.738;2022-12-10T08:26:02;4.82;;;2.45;;
74293;SDS011;64044;59.904;10.738;2022-12-10T08:28:29;5.53;;;2.75;;
74293;SDS011;64044;59.904;10.738;2022-12-10T08:30:55;4.70;;;2.60;;
74293;SDS011;64044;59.904;10.738;2022-12-10T08:33:20;6.53;;;3.05;;
74293;SDS011;64044;59.904;10.738;2022-12-10T08:35:46;5.20;;;2.58;;
74293;SDS011;64044;59.904;10.738;2022-12-10T08:38:11;6.55;;;2.67;;
74293;SDS011;64044;59.904;10.738;2022-12-10T08:40:41;8.35;;;2.75;;
74293;SDS011;64044;59.904;10.738;2022-12-10T08:43:07;6.97;;;2.20;;
74293;SDS011;64044;59.904;10.738;2022-12-10T08:45:32;4.32;;;2.70;;
74293;SDS011;64044;59.904;10.738;2022-12-10T08:47:59;8.70;;;2.67;;
74293;SDS011;64044;59.904;10.738;2022-12-10T08:50:26;5.20;;;2.55;;
74293;SDS011;64044;59.904;10.738;2022-12-10T08:52:52;6.18;;;2.63;;
74293;SDS011;64044;59.904;10.738;2022-12-10T08:55:17;5.82;;;2.70;;
74293;SDS011;64044;59.904;10.738;2022-12-10T08:57:43;6.40;;;2.95;;
74293;SDS011;64044;59.904;10.738;2022-12-10T09:00:08;7.03;;;3.03;;
74293;SDS011;64044;59.904;10.738;2022-12-10T09:02:35;5.72;;;2.97;;
74293;SDS011;64044;59.904;10.738;2022-12-10T09:05:00;8.73;;;3.28;;
74293;SDS011;64044;59.904;10.738;2022-12-10T09:07:26;8.13;;;3.90;;
74293;SDS011;64044;59.904;10.738;2022-12-10T09:09:52;8.57;;;3.60;;
74293;SDS011;64044;59.904;10.738;2022-12-10T09:12:17;6.55;;;3.17;;
74293;SDS011;64044;59.904;10.738;2022-12-10T09:14:43;7.05;;;3.88;;
74293;SDS011;64044;59.904;10.738;2022-12-10T09:17:08;12.65;;;3.88;;
74293;SDS011;64044;59.904;10.738;2022-12-10T09:19:34;9.43;;;3.83;;
74293;SDS011;64044;59.904;10.738;2022-12-10T09:22:00;7.47;;;4.00;;
74293;SDS011;64044;59.904;10.738;2022-12-10T09:24:25;10.75;;;3.95;;
74293;SDS011;64044;59.904;10.738;2022-12-10T09:26:51;10.52;;;3.58;;
74293;SDS011;64044;59.904;10.738;2022-12-10T09:29:17;9.35;;;4.13;;
74293;SDS011;64044;59.904;10.738;2022-12-10T09:31:42;12.43;;;3.80;;
74293;SDS011;64044;59.904;10.738;2022-12-10T09:34:08;10.70;;;4.70;;
74293;SDS011;64044;59.904;10.738;2022-12-10T09:36:35;7.07;;;4.10;;
74293;SDS011;64044;59.904;10.738;2022-12-10T09:39:01;9.60;;;4.75;;
74293;SDS011;64044;59.904;10.738;2022-12-10T09:41:34;11.95;;;5.47;;
74293;SDS011;64044;59.904;10.738;2022-12-10T09:51:36;10.77;;;3.90;;
74293;SDS011;64044;59.904;10.738;2022-12-10T09:54:04;12.80;;;4.95;;
74293;SDS011;64044;59.904;10.738;2022-12-10T09:56:55;11.20;;;4.20;;
74293;SDS011;64044;59.904;10.738;2022-12-10T09:59:24;8.40;;;3.78;;
74293;SDS011;64044;59.904;10.738;2022-12-10T10:05:02;9.15;;;4.00;;
74293;SDS011;64044;59.904;10.738;2022-12-10T10:07:37;8.27;;;3.38;;
74293;SDS011;64044;59.904;10.738;2022-12-10T10:12:58;6.50;;;3.63;;
74293;SDS011;64044;59.904;10.738;2022-12-10T10:15:51;5.50;;;3.10;;
74293;SDS011;64044;59.904;10.738;2022-12-10T10:21:04;9.23;;;4.00;;
74293;SDS011;64044;59.904;10.738;2022-12-10T10:23:32;8.05;;;4.82;;
74293;SDS011;64044;59.904;10.738;2022-12-10T10:25:58;11.07;;;4.75;;
74293;SDS011;64044;59.904;10.738;2022-12-10T10:28:24;12.70;;;5.82;;
74293;SDS011;64044;59.904;10.738;2022-12-10T10:30:51;10.27;;;5.53;;
74293;SDS011;64044;59.904;10.738;2022-12-10T10:33:19;12.10;;;5.93;;
74293;SDS011;64044;59.904;10.738;2022-12-10T10:35:46;10.23;;;5.22;;
74293;SDS011;64044;59.904;10.738;2022-12-10T10:38:21;10.90;;;4.55;;
74293;SDS011;64044;59.904;10.738;2022-12-10T10:40:55;12.60;;;5.03;;
74293;SDS011;64044;59.904;10.738;2022-12-10T10:43:24;11.45;;;4.55;;
74293;SDS011;64044;59.904;10.738;2022-12-10T10:45:59;12.15;;;5.25;;
74293;SDS011;64044;59.904;10.738;2022-12-10T10:48:29;16.42;;;5.97;;
74293;SDS011;64044;59.904;10.738;2022-12-10T10:51:05;12.95;;;6.18;;
74293;SDS011;64044;59.904;10.738;2022-12-10T11:01:44;15.85;;;6.40;;
74293;SDS011;64044;59.904;10.738;2022-12-10T11:04:10;14.00;;;7.63;;
74293;SDS011;64044;59.904;10.738;2022-12-10T11:06:37;20.92;;;10.02;;
74293;SDS011;64044;59.904;10.738;2022-12-10T11:09:05;24.38;;;10.25;;
74293;SDS011;64044;59.904;10.738;2022-12-10T11:14:12;22.92;;;7.75;;
74293;SDS011;64044;59.904;10.738;2022-12-10T11:16:40;16.48;;;7.20;;
74293;SDS011;64044;59.904;10.738;2022-12-10T11:19:07;13.60;;;6.75;;
74293;SDS011;64044;59.904;10.738;2022-12-10T11:21:44;11.30;;;6.25;;
74293;SDS011;64044;59.904;10.738;2022-12-10T11:24:10;13.25;;;5.63;;
74293;SDS011;64044;59.904;10.738;2022-12-10T11:31:43;9.15;;;4.88;;
74293;SDS011;64044;59.904;10.738;2022-12-10T11:44:55;8.63;;;4.93;;
74293;SDS011;64044;59.904;10.738;2022-12-10T11:47:50;8.90;;;4.72;;
74293;SDS011;64044;59.904;10.738;2022-12-10T12:10:12;13.93;;;4.85;;
74293;SDS011;64044;59.904;10.738;2022-12-10T12:12:49;9.75;;;4.90;;
74293;SDS011;64044;59.904;10.738;2022-12-10T12:15:27;6.60;;;4.60;;
74293;SDS011;64044;59.904;10.738;2022-12-10T12:18:06;9.45;;;5.30;;
74293;SDS011;64044;59.904;10.738;2022-12-10T12:20:57;8.05;;;5.00;;
74293;SDS011;64044;59.904;10.738;2022-12-10T12:23:29;8.32;;;5.15;;
74293;SDS011;64044;59.904;10.738;2022-12-10T12:31:34;8.55;;;4.68;;
74293;SDS011;64044;59.904;10.738;2022-12-10T12:34:04;10.55;;;4.53;;
74293;SDS011;64044;59.904;10.738;2022-12-10T12:36:50;8.35;;;4.88;;
74293;SDS011;64044;59.904;10.738;2022-12-10T12:45:53;10.13;;;4.28;;
74293;SDS011;64044;59.904;10.738;2022-12-10T12:53:59;6.18;;;3.85;;
74293;SDS011;64044;59.904;10.738;2022-12-10T13:04:49;9.60;;;4.63;;
74293;SDS011;64044;59.904;10.738;2022-12-10T13:09:46;10.82;;;4.03;;
74293;SDS011;64044;59.904;10.738;2022-12-10T13:23:04;8.48;;;4.03;;
74293;SDS011;64044;59.904;10.738;2022-12-10T13:39:33;6.45;;;2.92;;
74293;SDS011;64044;59.904;10.738;2022-12-10T13:45:01;4.65;;;2.03;;
74293;SDS011;64044;59.904;10.738;2022-12-10T13:47:41;3.80;;;1.80;;
74293;SDS011;64044;59.904;10.738;2022-12-10T13:55:39;2.88;;;2.00;;
74293;SDS011;64044;59.904;10.738;2022-12-10T14:06:22;4.40;;;2.10;;
74293;SDS011;64044;59.904;10.738;2022-12-10T14:08:56;3.42;;;1.48;;
74293;SDS011;64044;59.904;10.738;2022-12-10T14:14:31;5.03;;;1.80;;
74293;SDS011;64044;59.904;10.738;2022-12-10T14:17:04;3.60;;;2.17;;
74293;SDS011;64044;59.904;10.738;2022-12-10T14:19:31;3.30;;;1.50;;
74293;SDS011;64044;59.904;10.738;2022-12-10T14:22:03;4.75;;;1.58;;
74293;SDS011;64044;59.904;10.738;2022-12-10T14:27:14;4.68;;;2.10;;
74293;SDS011;64044;59.904;10.738;2022-12-10T14:29:48;3.53;;;1.90;;
74293;SDS011;64044;59.904;10.738;2022-12-10T14:32:37;3.63;;;2.00;;
74293;SDS011;64044;59.904;10.738;2022-12-10T14:35:05;8.18;;;2.22;;
74293;SDS011;64044;59.904;10.738;2022-12-10T14:37:37;6.72;;;2.90;;
74293;SDS011;64044;59.904;10.738;2022-12-10T14:40:07;2.78;;;1.80;;
74293;SDS011;64044;59.904;10.738;2022-12-10T14:42:34;7.70;;;2.42;;
74293;SDS011;64044;59.904;10.738;2022-12-10T14:45:03;4.63;;;2.17;;
74293;SDS011;64044;59.904;10.738;2022-12-10T14:47:37;5.35;;;2.33;;
74293;SDS011;64044;59.904;10.738;2022-12-10T14:50:04;4.60;;;2.15;;
74293;SDS011;64044;59.904;10.738;2022-12-10T14:52:45;4.53;;;2.20;;
74293;SDS011;64044;59.904;10.738;2022-12-10T14:55:17;5.70;;;1.92;;
74293;SDS011;64044;59.904;10.738;2022-12-10T14:57:54;4.05;;;1.80;;
74293;SDS011;64044;59.904;10.738;2022-12-10T15:00:26;5.82;;;2.08;;
74293;SDS011;64044;59.904;10.738;2022-12-10T15:02:53;2.28;;;1.30;;
74293;SDS011;64044;59.904;10.738;2022-12-10T15:05:24;3.90;;;1.70;;
74293;SDS011;64044;59.904;10.738;2022-12-10T15:08:05;3.08;;;1.60;;
74293;SDS011;64044;59.904;10.738;2022-12-10T15:10:37;3.97;;;1.65;;
74293;SDS011;64044;59.904;10.738;2022-12-10T15:13:04;2.88;;;1.55;;
74293;SDS011;64044;59.904;10.738;2022-12-10T15:15:35;3.42;;;1.85;;
74293;SDS011;64044;59.904;10.738;2022-12-10T15:37:24;4.88;;;2.10;;
74293;SDS011;64044;59.904;10.738;2022-12-10T15:39:32;3.78;;;1.70;;
74293;SDS011;64044;59.904;10.738;2022-12-10T15:42:06;6.93;;;2.58;;
74293;SDS011;64044;59.904;10.738;2022-12-10T15:44:35;4.82;;;2.30;;
74293;SDS011;64044;59.904;10.738;2022-12-10T15:47:10;4.95;;;2.80;;
74293;SDS011;64044;59.904;10.738;2022-12-10T15:49:46;4.38;;;1.92;;
74293;SDS011;64044;59.904;10.738;2022-12-10T15:52:14;4.53;;;2.58;;
74293;SDS011;64044;59.904;10.738;2022-12-10T15:54:49;5.05;;;2.60;;
74293;SDS011;64044;59.904;10.738;2022-12-10T15:57:17;5.53;;;2.38;;
74293;SDS011;64044;59.904;10.738;2022-12-10T16:00:05;10.00;;;2.75;;
74293;SDS011;64044;59.904;10.738;2022-12-10T16:02:42;9.75;;;2.58;;
74293;SDS011;64044;59.904;10.738;2022-12-10T16:05:13;6.35;;;2.45;;
74293;SDS011;64044;59.904;10.738;2022-12-10T16:07:42;4.90;;;2.50;;
74293;SDS011;64044;59.904;10.738;2022-12-10T16:10:09;5.25;;;2.20;;
74293;SDS011;64044;59.904;10.738;2022-12-10T16:12:40;6.22;;;2.70;;
74293;SDS011;64044;59.904;10.738;2022-12-10T16:15:07;4.35;;;2.40;;
74293;SDS011;64044;59.904;10.738;2022-12-10T16:17:40;4.22;;;2.22;;
74293;SDS011;64044;59.904;10.738;2022-12-10T16:20:17;3.97;;;1.55;;
74293;SDS011;64044;59.904;10.738;2022-12-10T16:22:51;5.70;;;2.40;;
74293;SDS011;64044;59.904;10.738;2022-12-10T16:25:18;8.38;;;2.35;;
74293;SDS011;64044;59.904;10.738;2022-12-10T16:27:44;4.07;;;1.98;;
74293;SDS011;64044;59.904;10.738;2022-12-10T16:30:23;3.63;;;1.85;;
74293;SDS011;64044;59.904;10.738;2022-12-10T16:32:53;7.03;;;2.80;;
74293;SDS011;64044;59.904;10.738;2022-12-10T16:35:20;5.32;;;2.25;;
74293;SDS011;64044;59.904;10.738;2022-12-10T16:37:47;5.82;;;2.20;;
74293;SDS011;64044;59.904;10.738;2022-12-10T16:40:19;7.57;;;2.22;;
74293;SDS011;64044;59.904;10.738;2022-12-10T16:42:47;3.55;;;1.90;;
74293;SDS011;64044;59.904;10.738;2022-12-10T16:45:13;5.18;;;2.40;;
74293;SDS011;64044;59.904;10.738;2022-12-10T16:47:40;5.72;;;2.80;;
74293;SDS011;64044;59.904;10.738;2022-12-10T16:50:06;4.45;;;2.60;;
74293;SDS011;64044;59.904;10.738;2022-12-10T16:52:32;5.70;;;2.63;;
74293;SDS011;64044;59.904;10.738;2022-12-10T16:54:58;5.07;;;2.42;;
74293;SDS011;64044;59.904;10.738;2022-12-10T16:57:23;4.65;;;2.33;;
74293;SDS011;64044;59.904;10.738;2022-12-10T16:59:49;3.53;;;2.05;;
74293;SDS011;64044;59.904;10.738;2022-12-10T17:02:15;4.90;;;2.20;;
74293;SDS011;64044;59.904;10.738;2022-12-10T17:04:42;4.85;;;2.00;;
74293;SDS011;64044;59.904;10.738;2022-12-10T17:07:09;3.08;;;1.85;;
74293;SDS011;64044;59.904;10.738;2022-12-10T17:09:36;5.45;;;1.70;;
74293;SDS011;64044;59.904;10.738;2022-12-10T17:12:02;4.75;;;2.35;;
74293;SDS011;64044;59.904;10.738;2022-12-10T17:14:30;5.25;;;2.30;;
74293;SDS011;64044;59.904;10.738;2022-12-10T17:17:04;4.88;;;2.45;;
74293;SDS011;64044;59.904;10.738;2022-12-10T17:19:31;8.93;;;3.03;;
74293;SDS011;64044;59.904;10.738;2022-12-10T17:21:58;5.50;;;2.35;;
74293;SDS011;64044;59.904;10.738;2022-12-10T17:24:24;4.75;;;2.70;;
74293;SDS011;64044;59.904;10.738;2022-12-10T17:26:50;5.60;;;2.58;;
74293;SDS011;64044;59.904;10.738;2022-12-10T17:29:26;4.55;;;2.40;;
74293;SDS011;64044;59.904;10.738;2022-12-10T17:31:57;4.88;;;2.28;;
74293;SDS011;64044;59.904;10.738;2022-12-10T17:34:23;5.72;;;2.65;;
74293;SDS011;64044;59.904;10.738;2022-12-10T17:36:49;6.70;;;2.50;;
74293;SDS011;64044;59.904;10.738;2022-12-10T17:39:17;4.85;;;2.30;;
74293;SDS011;64044;59.904;10.738;2022-12-10T17:41:44;4.65;;;2.45;;
74293;SDS011;64044;59.904;10.738;2022-12-10T17:44:10;4.07;;;2.60;;
74293;SDS011;64044;59.904;10.738;2022-12-10T17:46:36;7.28;;;2.90;;
74293;SDS011;64044;59.904;10.738;2022-12-10T17:49:02;8.50;;;3.85;;
74293;SDS011;64044;59.904;10.738;2022-12-10T17:51:29;7.78;;;3.17;;
74293;SDS011;64044;59.904;10.738;2022-12-10T17:53:56;12.93;;;3.60;;
74293;SDS011;64044;59.904;10.738;2022-12-10T17:56:22;7.43;;;3.05;;